Time;durP1;ratioP1;P1;durP2;ratioP2;P2;SDS_P1;SDS_P2;PMS_P1;PMS_P2;Temp;Humidity;BMP_temperature;BMP_pressure;BME280_temperature;BME280_humidity;BME280_pressure;Samples;Min_cycle;Max_cycle;Signal;HPM_P1;HPM_P2
2022/12/26 00:01:33;;;;;;;13.27;7.40;;;;;;;;;;5067541;28;20028;-70
2022/12/26 00:03:58;;;;;;;16.00;7.35;;;;;;;;;;5053691;28;20035;-71
2022/12/26 00:06:27;;;;;;;12.48;7.05;;;;;;;;;;5067045;28;20033;-72
2022/12/26 00:08:53;;;;;;;13.23;7.43;;;;;;;;;;5068554;28;20028;-72
2022/12/26 00:11:20;;;;;;;12.55;6.72;;;;;;;;;;5051389;28;20044;-73
2022/12/26 00:13:46;;;;;;;11.82;7.00;;;;;;;;;;5069715;28;20096;-71
2022/12/26 00:16:15;;;;;;;13.70;6.95;;;;;;;;;;5064940;28;20174;-70
2022/12/26 00:18:40;;;;;;;10.93;7.10;;;;;;;;;;5062879;28;20089;-69
2022/12/26 00:21:07;;;;;;;13.38;7.60;;;;;;;;;;5070566;28;20507;-73
2022/12/26 00:23:34;;;;;;;17.77;7.95;;;;;;;;;;5069389;28;20491;-70
2022/12/26 00:26:08;;;;;;;13.27;7.47;;;;;;;;;;5048775;28;20024;-69
2022/12/26 00:28:34;;;;;;;13.38;7.95;;;;;;;;;;5051355;28;20032;-71
2022/12/26 00:31:05;;;;;;;12.15;7.43;;;;;;;;;;5051510;28;20036;-72
2022/12/26 00:33:32;;;;;;;13.77;7.28;;;;;;;;;;5066925;28;20105;-68
2022/12/26 00:36:02;;;;;;;14.13;7.60;;;;;;;;;;5067019;28;20193;-71
2022/12/26 00:38:27;;;;;;;12.68;7.07;;;;;;;;;;5050675;28;20033;-72
2022/12/26 00:40:52;;;;;;;11.05;7.38;;;;;;;;;;5070239;28;20399;-72
2022/12/26 00:43:19;;;;;;;14.27;8.05;;;;;;;;;;5052050;28;20033;-71
2022/12/26 00:45:47;;;;;;;12.45;7.18;;;;;;;;;;5071909;28;20104;-70
2022/12/26 00:48:12;;;;;;;13.73;7.43;;;;;;;;;;5050444;28;20032;-73
2022/12/26 00:50:38;;;;;;;14.73;7.95;;;;;;;;;;5050136;28;20388;-75
2022/12/26 00:53:03;;;;;;;12.25;6.75;;;;;;;;;;5062572;28;20388;-71
2022/12/26 00:55:28;;;;;;;12.90;7.00;;;;;;;;;;5063758;28;20074;-70
2022/12/26 00:57:54;;;;;;;13.32;6.90;;;;;;;;;;5070877;28;20040;-68
2022/12/26 01:00:19;;;;;;;13.40;6.85;;;;;;;;;;5060117;28;20032;-72
2022/12/26 01:02:44;;;;;;;11.68;6.50;;;;;;;;;;5060617;28;20060;-69
2022/12/26 01:05:11;;;;;;;11.30;7.25;;;;;;;;;;5043978;28;20025;-72
2022/12/26 01:07:38;;;;;;;11.65;6.00;;;;;;;;;;5060005;28;20112;-72
2022/12/26 01:10:06;;;;;;;13.88;7.07;;;;;;;;;;5062437;28;20032;-70
2022/12/26 01:12:31;;;;;;;11.35;6.68;;;;;;;;;;5066531;28;20455;-71
2022/12/26 01:14:58;;;;;;;11.88;6.32;;;;;;;;;;5067410;28;20028;-71
2022/12/26 01:17:24;;;;;;;12.13;6.07;;;;;;;;;;5060647;28;20510;-70
2022/12/26 01:19:50;;;;;;;11.85;6.38;;;;;;;;;;5061952;28;20029;-71
2022/12/26 01:22:15;;;;;;;10.75;6.35;;;;;;;;;;5047263;28;20431;-70
2022/12/26 01:24:41;;;;;;;9.20;6.57;;;;;;;;;;5059703;28;20111;-69
2022/12/26 01:27:06;;;;;;;9.27;5.43;;;;;;;;;;5066460;28;20086;-69
2022/12/26 01:29:31;;;;;;;12.93;5.55;;;;;;;;;;5040398;28;20024;-73
2022/12/26 01:31:57;;;;;;;9.93;5.78;;;;;;;;;;5066781;28;20025;-70
2022/12/26 01:34:23;;;;;;;8.55;5.63;;;;;;;;;;5051329;28;20037;-71
2022/12/26 01:36:50;;;;;;;11.65;6.22;;;;;;;;;;5064778;28;20059;-70
2022/12/26 01:39:15;;;;;;;10.02;6.03;;;;;;;;;;5061947;28;20451;-71
2022/12/26 01:41:41;;;;;;;11.25;5.82;;;;;;;;;;5062249;28;20048;-71
2022/12/26 01:44:45;;;;;;;9.43;5.60;;;;;;;;;;5043448;28;20093;-73
2022/12/26 01:47:11;;;;;;;12.77;5.72;;;;;;;;;;5060776;28;20032;-70
2022/12/26 01:49:41;;;;;;;9.40;5.80;;;;;;;;;;5061618;28;20385;-74
2022/12/26 01:52:13;;;;;;;9.60;6.28;;;;;;;;;;5041727;28;20039;-70
2022/12/26 01:54:41;;;;;;;9.10;6.13;;;;;;;;;;5063468;28;20028;-69
2022/12/26 01:57:12;;;;;;;10.05;6.07;;;;;;;;;;5043186;28;20198;-70
2022/12/26 01:59:40;;;;;;;10.65;6.00;;;;;;;;;;5062175;28;20024;-73
2022/12/26 02:02:07;;;;;;;8.13;5.43;;;;;;;;;;5062339;28;20023;-70
2022/12/26 02:07:26;;;;;;;9.52;5.97;;;;;;;;;;5062676;28;20446;-70
2022/12/26 02:09:52;;;;;;;10.93;6.20;;;;;;;;;;5061529;28;20047;-73
2022/12/26 02:12:28;;;;;;;9.80;5.72;;;;;;;;;;5059211;28;20408;-70
2022/12/26 02:14:56;;;;;;;9.90;5.65;;;;;;;;;;5060682;28;20055;-71
2022/12/26 02:17:24;;;;;;;12.63;6.38;;;;;;;;;;5062705;28;20415;-70
2022/12/26 02:20:00;;;;;;;8.23;5.25;;;;;;;;;;5058035;28;20048;-71
2022/12/26 02:22:51;;;;;;;10.40;5.70;;;;;;;;;;5042210;28;20032;-69
2022/12/26 02:25:27;;;;;;;8.25;5.18;;;;;;;;;;5059710;28;20031;-71
2022/12/26 02:28:17;;;;;;;9.10;6.00;;;;;;;;;;5060732;28;20036;-72
2022/12/26 02:31:01;;;;;;;8.90;5.28;;;;;;;;;;5060352;28;20064;-70
2022/12/26 02:33:57;;;;;;;8.90;5.55;;;;;;;;;;5059959;28;20480;-71
2022/12/26 02:36:28;;;;;;;7.70;5.43;;;;;;;;;;5060577;28;20971;-73
2022/12/26 02:39:03;;;;;;;8.75;5.10;;;;;;;;;;5060606;28;20511;-70
2022/12/26 02:41:41;;;;;;;8.07;5.43;;;;;;;;;;5061180;28;20095;-73
2022/12/26 02:47:27;;;;;;;10.43;5.25;;;;;;;;;;5060209;28;20039;-73
2022/12/26 03:13:27;;;;;;;8.43;4.50;;;;;;;;;;5061613;28;20045;-73
2022/12/26 03:18:46;;;;;;;9.43;4.63;;;;;;;;;;5065974;28;20042;-74
2022/12/26 03:21:13;;;;;;;6.50;4.47;;;;;;;;;;5067937;28;20051;-74
2022/12/26 03:23:41;;;;;;;8.77;4.70;;;;;;;;;;5066751;28;20029;-73
2022/12/26 03:30:47;;;;;;;5.78;4.00;;;;;;;;;;5064401;28;20027;-71
2022/12/26 03:31:41;;;;;;;8.27;4.43;;;;;;;;;;5062202;28;20033;-73
2022/12/26 03:34:17;;;;;;;6.18;4.38;;;;;;;;;;5063468;28;20020;-73
2022/12/26 03:36:48;;;;;;;7.00;4.47;;;;;;;;;;5061017;28;20436;-72
2022/12/26 04:21:04;;;;;;;8.45;5.20;;;;;;;;;;5066569;28;20031;-74
2022/12/26 04:46:20;;;;;;;6.72;4.53;;;;;;;;;;5069972;28;20085;-73
2022/12/26 04:51:34;;;;;;;8.65;4.15;;;;;;;;;;5051722;28;20042;-73
2022/12/26 04:53:59;;;;;;;7.43;4.40;;;;;;;;;;5068576;28;20024;-74
2022/12/26 04:56:25;;;;;;;9.10;4.72;;;;;;;;;;5070003;28;20064;-73
2022/12/26 04:58:51;;;;;;;6.55;4.25;;;;;;;;;;5066135;28;20051;-73
2022/12/26 05:09:34;;;;;;;9.13;4.32;;;;;;;;;;5069848;28;20503;-72
2022/12/26 05:12:04;;;;;;;9.00;3.97;;;;;;;;;;5063457;28;20111;-72
2022/12/26 05:14:30;;;;;;;6.07;3.90;;;;;;;;;;5066503;28;20070;-72
2022/12/26 05:31:02;;;;;;;8.05;4.18;;;;;;;;;;5067992;28;20078;-73
2022/12/26 05:36:13;;;;;;;6.78;4.38;;;;;;;;;;5066166;28;20107;-72
2022/12/26 05:38:38;;;;;;;6.80;4.28;;;;;;;;;;5067815;28;20473;-72
2022/12/26 05:41:04;;;;;;;9.57;4.03;;;;;;;;;;5064157;28;20032;-72
2022/12/26 05:43:29;;;;;;;8.25;4.07;;;;;;;;;;5068095;28;20115;-70
2022/12/26 05:45:55;;;;;;;6.25;3.90;;;;;;;;;;5066983;28;20032;-72
2022/12/26 05:48:20;;;;;;;9.80;4.07;;;;;;;;;;5070466;28;20460;-71
2022/12/26 05:50:46;;;;;;;8.10;4.03;;;;;;;;;;5069064;28;20129;-71
2022/12/26 05:53:11;;;;;;;4.63;3.58;;;;;;;;;;5067804;28;20155;-72
2022/12/26 05:55:37;;;;;;;10.57;3.45;;;;;;;;;;5068648;28;20032;-74
2022/12/26 05:58:03;;;;;;;6.13;3.83;;;;;;;;;;5068738;28;20083;-71
2022/12/26 06:00:29;;;;;;;7.18;3.47;;;;;;;;;;5049255;28;20106;-74
2022/12/26 06:02:55;;;;;;;6.55;3.60;;;;;;;;;;5069521;28;20067;-70
2022/12/26 06:05:21;;;;;;;5.55;3.60;;;;;;;;;;5051678;28;20033;-72
2022/12/26 06:07:46;;;;;;;5.90;3.45;;;;;;;;;;5066700;28;20024;-72
2022/12/26 06:10:12;;;;;;;5.88;3.40;;;;;;;;;;5063571;28;20043;-70
2022/12/26 06:12:37;;;;;;;5.80;3.47;;;;;;;;;;5064875;28;20122;-74
2022/12/26 06:15:03;;;;;;;7.40;3.63;;;;;;;;;;5045490;28;20170;-74
2022/12/26 06:17:29;;;;;;;5.97;3.50;;;;;;;;;;5062911;28;20028;-71
2022/12/26 06:19:54;;;;;;;7.15;3.25;;;;;;;;;;5064659;28;20723;-71
2022/12/26 06:22:19;;;;;;;6.60;3.40;;;;;;;;;;5064877;28;20121;-71
2022/12/26 06:24:45;;;;;;;6.63;4.40;;;;;;;;;;5047907;28;20056;-70
2022/12/26 06:27:10;;;;;;;8.05;4.05;;;;;;;;;;5049198;28;20021;-71
2022/12/26 06:29:36;;;;;;;9.02;4.43;;;;;;;;;;5065476;28;20025;-72
2022/12/26 06:32:02;;;;;;;8.25;3.53;;;;;;;;;;5064531;28;20032;-71
2022/12/26 06:34:27;;;;;;;7.25;3.40;;;;;;;;;;5064382;28;20032;-72
2022/12/26 06:36:54;;;;;;;6.47;3.83;;;;;;;;;;5066230;28;20553;-71
2022/12/26 06:39:20;;;;;;;5.10;3.70;;;;;;;;;;5065802;28;20040;-69
2022/12/26 06:41:45;;;;;;;7.88;3.55;;;;;;;;;;5063509;28;20090;-71
2022/12/26 06:44:10;;;;;;;7.25;3.28;;;;;;;;;;5066740;28;20553;-72
2022/12/26 06:46:36;;;;;;;5.65;3.30;;;;;;;;;;5065196;28;20103;-70
2022/12/26 06:49:01;;;;;;;5.60;3.72;;;;;;;;;;5067931;28;20044;-70
2022/12/26 06:51:29;;;;;;;7.47;3.33;;;;;;;;;;5068751;28;20130;-70
2022/12/26 06:53:55;;;;;;;6.95;3.50;;;;;;;;;;5064350;28;20043;-73
2022/12/26 06:56:23;;;;;;;5.78;3.15;;;;;;;;;;5061267;28;20457;-71
2022/12/26 06:59:06;;;;;;;5.55;3.10;;;;;;;;;;5063022;28;20093;-71
2022/12/26 07:01:33;;;;;;;4.85;3.20;;;;;;;;;;5063631;28;20487;-73
2022/12/26 07:04:00;;;;;;;5.97;3.47;;;;;;;;;;5064897;28;20061;-72
2022/12/26 07:06:31;;;;;;;6.38;3.88;;;;;;;;;;5061995;28;20119;-72
2022/12/26 07:08:59;;;;;;;6.63;3.17;;;;;;;;;;5048700;28;20087;-72
2022/12/26 07:11:28;;;;;;;9.88;3.90;;;;;;;;;;5061891;28;20560;-72
2022/12/26 07:13:54;;;;;;;6.35;3.50;;;;;;;;;;5047258;28;20036;-73
2022/12/26 07:16:20;;;;;;;6.28;3.90;;;;;;;;;;5063785;28;20489;-72
2022/12/26 07:18:45;;;;;;;5.78;3.25;;;;;;;;;;5053359;28;20043;-72
2022/12/26 07:21:13;;;;;;;8.20;4.88;;;;;;;;;;5064030;28;20451;-71
2022/12/26 07:23:39;;;;;;;7.03;3.92;;;;;;;;;;5067729;28;20338;-71
2022/12/26 07:26:05;;;;;;;6.63;3.30;;;;;;;;;;5064720;28;20035;-73
2022/12/26 07:28:30;;;;;;;10.35;3.47;;;;;;;;;;5068227;28;20020;-71
2022/12/26 07:30:59;;;;;;;6.22;4.13;;;;;;;;;;5069173;28;20396;-71
2022/12/26 07:33:26;;;;;;;5.35;3.80;;;;;;;;;;5053514;28;20078;-71
2022/12/26 07:35:51;;;;;;;11.50;4.53;;;;;;;;;;5065897;28;20060;-72
2022/12/26 07:38:17;;;;;;;8.38;4.20;;;;;;;;;;5069190;28;20095;-72
2022/12/26 07:40:43;;;;;;;6.70;3.58;;;;;;;;;;5066539;28;20024;-73
2022/12/26 07:43:08;;;;;;;7.55;3.72;;;;;;;;;;5070052;28;20107;-71
2022/12/26 07:45:34;;;;;;;7.18;3.65;;;;;;;;;;5046991;28;20020;-70
2022/12/26 07:47:59;;;;;;;9.20;3.42;;;;;;;;;;5066358;28;20032;-71
2022/12/26 07:50:25;;;;;;;6.38;3.72;;;;;;;;;;5067990;28;20037;-74
2022/12/26 07:52:51;;;;;;;6.13;3.70;;;;;;;;;;5067720;28;20040;-71
2022/12/26 07:55:17;;;;;;;7.60;3.17;;;;;;;;;;5066372;28;20480;-72
2022/12/26 07:57:43;;;;;;;5.90;3.72;;;;;;;;;;5069331;28;20029;-70
2022/12/26 08:00:09;;;;;;;6.00;3.40;;;;;;;;;;5067542;28;20047;-72
2022/12/26 08:02:35;;;;;;;7.15;4.05;;;;;;;;;;5066139;28;20031;-72
2022/12/26 08:05:00;;;;;;;10.57;4.95;;;;;;;;;;5068948;28;20029;-71
2022/12/26 08:07:26;;;;;;;9.98;4.20;;;;;;;;;;5066940;28;20043;-71
2022/12/26 08:09:51;;;;;;;8.48;3.65;;;;;;;;;;5049251;28;20046;-74
2022/12/26 08:12:20;;;;;;;8.52;3.92;;;;;;;;;;5069677;28;20032;-71
2022/12/26 08:14:46;;;;;;;9.65;4.32;;;;;;;;;;5068050;28;20034;-71
2022/12/26 08:17:11;;;;;;;8.98;3.83;;;;;;;;;;5064657;28;20028;-71
2022/12/26 08:19:37;;;;;;;6.85;3.97;;;;;;;;;;5069644;28;20043;-73
2022/12/26 08:22:02;;;;;;;5.70;3.58;;;;;;;;;;5066471;28;20173;-71
2022/12/26 08:24:27;;;;;;;9.30;4.80;;;;;;;;;;5069064;28;20029;-70
2022/12/26 08:26:53;;;;;;;15.70;6.30;;;;;;;;;;5067581;28;20021;-71
2022/12/26 08:29:18;;;;;;;7.38;3.92;;;;;;;;;;5066081;28;20040;-74
2022/12/26 08:31:44;;;;;;;7.55;4.25;;;;;;;;;;5066622;28;20400;-72
2022/12/26 08:34:09;;;;;;;7.65;4.30;;;;;;;;;;5062810;28;20058;-71
2022/12/26 08:36:35;;;;;;;7.57;4.47;;;;;;;;;;5069445;28;20519;-71
2022/12/26 08:39:00;;;;;;;7.68;4.00;;;;;;;;;;5051606;28;20103;-70
2022/12/26 08:41:26;;;;;;;11.65;5.05;;;;;;;;;;5066089;28;20059;-71
2022/12/26 08:43:52;;;;;;;11.50;5.88;;;;;;;;;;5067266;28;20695;-70
2022/12/26 08:46:19;;;;;;;7.43;4.68;;;;;;;;;;5068555;28;20226;-71
2022/12/26 08:48:46;;;;;;;10.73;5.10;;;;;;;;;;5068444;28;20048;-72
2022/12/26 08:51:14;;;;;;;7.75;4.60;;;;;;;;;;5069109;28;20036;-73
2022/12/26 08:53:40;;;;;;;10.80;4.82;;;;;;;;;;5058326;28;20090;-72
2022/12/26 08:56:13;;;;;;;9.27;4.90;;;;;;;;;;5066150;28;20144;-74
2022/12/26 08:58:39;;;;;;;;;;;;;;;;;;5067510;28;20090;-73
2022/12/26 09:01:26;;;;;;;7.53;4.30;;;;;;;;;;5063161;28;20392;-73
2022/12/26 09:03:52;;;;;;;5.25;3.88;;;;;;;;;;5066452;28;20032;-71
2022/12/26 09:06:18;;;;;;;7.03;3.97;;;;;;;;;;5069078;28;20518;-71
2022/12/26 09:08:43;;;;;;;5.82;3.40;;;;;;;;;;5066362;28;20036;-73
2022/12/26 09:11:12;;;;;;;8.63;3.95;;;;;;;;;;5065648;28;20488;-74
2022/12/26 09:13:38;;;;;;;9.13;5.10;;;;;;;;;;5061352;28;20487;-71
2022/12/26 09:16:06;;;;;;;7.95;3.95;;;;;;;;;;5065563;28;20254;-72
2022/12/26 09:18:32;;;;;;;8.82;4.30;;;;;;;;;;5067771;28;20025;-74
2022/12/26 09:21:02;;;;;;;5.35;3.50;;;;;;;;;;5047299;28;20029;-71
2022/12/26 09:23:28;;;;;;;8.55;3.50;;;;;;;;;;5063306;28;20019;-72
2022/12/26 09:25:54;;;;;;;6.82;3.25;;;;;;;;;;5067109;28;20060;-71
2022/12/26 09:28:19;;;;;;;9.38;3.60;;;;;;;;;;5067378;28;20067;-71
2022/12/26 09:30:45;;;;;;;6.70;3.95;;;;;;;;;;5061754;28;20083;-74
2022/12/26 09:33:10;;;;;;;9.20;4.95;;;;;;;;;;5063160;28;20032;-72
2022/12/26 09:35:39;;;;;;;7.03;3.97;;;;;;;;;;5065874;28;20132;-71
2022/12/26 09:38:05;;;;;;;8.32;3.50;;;;;;;;;;5064626;28;20024;-73
2022/12/26 09:41:01;;;;;;;6.40;3.15;;;;;;;;;;5046695;28;20033;-72
2022/12/26 09:43:29;;;;;;;7.15;3.35;;;;;;;;;;5065309;28;20028;-73
2022/12/26 09:46:10;;;;;;;8.02;4.05;;;;;;;;;;5067271;28;20514;-72
2022/12/26 09:48:56;;;;;;;7.80;4.00;;;;;;;;;;5068270;28;20516;-73
2022/12/26 09:51:21;;;;;;;7.10;3.08;;;;;;;;;;5066352;28;20037;-71
2022/12/26 09:53:47;;;;;;;9.75;2.95;;;;;;;;;;5042716;28;20028;-71
2022/12/26 09:56:15;;;;;;;4.40;1.92;;;;;;;;;;5063016;28;20036;-73
2022/12/26 09:58:49;;;;;;;3.58;2.30;;;;;;;;;;5063390;28;20040;-73
2022/12/26 10:01:22;;;;;;;3.05;2.08;;;;;;;;;;5061913;28;20059;-72
2022/12/26 10:03:55;;;;;;;3.58;1.92;;;;;;;;;;5064953;28;20119;-75
2022/12/26 10:06:25;;;;;;;3.15;2.00;;;;;;;;;;5064960;28;20495;-72
2022/12/26 10:09:30;;;;;;;3.53;1.92;;;;;;;;;;5063182;28;20554;-72
2022/12/26 10:12:34;;;;;;;3.28;1.77;;;;;;;;;;5058122;28;20089;-72
2022/12/26 10:15:37;;;;;;;4.13;2.35;;;;;;;;;;5030947;28;20037;-73
2022/12/26 10:18:14;;;;;;;5.20;2.40;;;;;;;;;;5066820;28;20434;-71
2022/12/26 10:20:46;;;;;;;5.40;2.22;;;;;;;;;;5066355;28;20431;-70
2022/12/26 10:23:28;;;;;;;3.67;2.17;;;;;;;;;;5063867;28;20556;-70
2022/12/26 10:26:23;;;;;;;5.22;1.92;;;;;;;;;;5067532;28;20109;-70
2022/12/26 10:28:58;;;;;;;3.05;1.65;;;;;;;;;;5065083;28;20080;-71
2022/12/26 10:31:23;;;;;;;4.00;2.00;;;;;;;;;;5067203;28;20134;-72
2022/12/26 10:34:09;;;;;;;4.63;1.80;;;;;;;;;;5069243;28;20070;-72
2022/12/26 10:36:47;;;;;;;2.63;1.42;;;;;;;;;;5066928;28;20380;-71
2022/12/26 10:39:33;;;;;;;4.03;1.25;;;;;;;;;;5047495;28;20399;-71
2022/12/26 10:42:09;;;;;;;1.75;1.15;;;;;;;;;;5050063;28;20029;-72
2022/12/26 10:44:34;;;;;;;3.13;1.10;;;;;;;;;;5064366;28;20434;-73
2022/12/26 10:47:25;;;;;;;2.58;1.27;;;;;;;;;;5064884;28;20028;-71
2022/12/26 10:49:51;;;;;;;3.67;1.02;;;;;;;;;;5060075;28;20080;-72
2022/12/26 10:52:19;;;;;;;1.65;1.20;;;;;;;;;;5064404;28;20033;-73
2022/12/26 10:54:53;;;;;;;2.17;1.00;;;;;;;;;;5052196;28;20090;-74
2022/12/26 10:57:18;;;;;;;2.17;1.13;;;;;;;;;;5064805;28;20036;-70
2022/12/26 10:59:48;;;;;;;3.70;1.65;;;;;;;;;;5068814;28;20024;-75
2022/12/26 11:02:28;;;;;;;1.52;0.90;;;;;;;;;;5068063;28;20017;-73
2022/12/26 11:04:57;;;;;;;1.40;1.00;;;;;;;;;;5071084;28;20133;-71
2022/12/26 11:07:25;;;;;;;1.75;0.73;;;;;;;;;;5070490;28;20048;-74
2022/12/26 11:10:00;;;;;;;1.55;0.88;;;;;;;;;;5051439;28;20461;-72
2022/12/26 11:12:43;;;;;;;1.45;1.10;;;;;;;;;;5069851;28;20020;-72
2022/12/26 11:15:19;;;;;;;1.42;0.98;;;;;;;;;;5066832;28;20100;-73
2022/12/26 11:17:49;;;;;;;1.83;0.88;;;;;;;;;;5068992;28;20488;-72
2022/12/26 11:20:14;;;;;;;4.13;1.25;;;;;;;;;;5070158;28;20493;-72
2022/12/26 11:22:41;;;;;;;1.38;0.80;;;;;;;;;;5068182;28;20044;-72
2022/12/26 11:25:12;;;;;;;2.50;1.20;;;;;;;;;;5070405;28;20028;-72
2022/12/26 11:27:41;;;;;;;3.47;1.13;;;;;;;;;;5068815;28;20499;-73
2022/12/26 11:30:13;;;;;;;2.42;0.90;;;;;;;;;;5062681;28;20049;-72
2022/12/26 11:32:42;;;;;;;1.15;0.80;;;;;;;;;;5069865;28;20086;-72
2022/12/26 11:35:21;;;;;;;1.33;0.90;;;;;;;;;;5069755;28;20549;-72
2022/12/26 11:37:51;;;;;;;1.10;0.82;;;;;;;;;;5067634;28;20032;-72
2022/12/26 11:40:24;;;;;;;1.92;0.85;;;;;;;;;;5068209;28;20038;-72
2022/12/26 11:42:53;;;;;;;;;;;;;;;;;;5066051;28;20043;-69
2022/12/26 11:45:26;;;;;;;1.70;1.15;;;;;;;;;;5066136;28;19921;-71
2022/12/26 11:47:54;;;;;;;2.63;1.30;;;;;;;;;;5068647;28;20032;-71
2022/12/26 11:50:23;;;;;;;1.40;0.80;;;;;;;;;;5066378;28;20040;-72
2022/12/26 11:52:56;;;;;;;1.20;1.10;;;;;;;;;;5041112;28;20151;-72
2022/12/26 11:55:25;;;;;;;4.07;0.93;;;;;;;;;;5060821;28;20114;-72
2022/12/26 11:58:14;;;;;;;3.33;0.95;;;;;;;;;;5061847;28;20024;-72
2022/12/26 12:00:42;;;;;;;2.25;0.70;;;;;;;;;;5062015;28;20458;-72
2022/12/26 12:03:23;;;;;;;2.15;0.65;;;;;;;;;;5060971;28;20105;-70
2022/12/26 12:06:19;;;;;;;2.47;0.90;;;;;;;;;;5059829;28;20052;-73
2022/12/26 12:09:03;;;;;;;2.63;0.80;;;;;;;;;;5061194;28;20039;-74
2022/12/26 12:11:49;;;;;;;2.00;0.88;;;;;;;;;;5061455;28;20040;-71
2022/12/26 12:14:40;;;;;;;1.05;0.85;;;;;;;;;;5062058;28;20071;-72
2022/12/26 12:17:34;;;;;;;6.43;0.80;;;;;;;;;;5050672;28;20024;-71
2022/12/26 12:20:28;;;;;;;5.07;0.90;;;;;;;;;;5063550;28;20055;-73
2022/12/26 12:23:09;;;;;;;1.45;1.00;;;;;;;;;;5067747;28;20033;-71
2022/12/26 12:25:58;;;;;;;1.40;0.80;;;;;;;;;;5067319;28;20326;-73
2022/12/26 12:28:32;;;;;;;2.90;0.90;;;;;;;;;;5066480;28;20032;-72
2022/12/26 12:31:05;;;;;;;2.22;0.88;;;;;;;;;;5062777;28;20037;-73
2022/12/26 12:33:58;;;;;;;1.67;0.90;;;;;;;;;;5068912;28;20024;-71
2022/12/26 12:36:46;;;;;;;3.03;1.15;;;;;;;;;;5068780;28;20043;-72
2022/12/26 12:39:26;;;;;;;2.00;0.90;;;;;;;;;;5068768;28;20040;-72
2022/12/26 12:41:54;;;;;;;2.50;1.10;;;;;;;;;;5065664;28;20028;-72
2022/12/26 12:44:58;;;;;;;1.73;0.90;;;;;;;;;;5066995;28;20035;-72
2022/12/26 12:47:37;;;;;;;1.33;0.70;;;;;;;;;;5051925;28;20052;-72
2022/12/26 12:50:24;;;;;;;5.03;0.80;;;;;;;;;;5067597;28;20021;-71
2022/12/26 12:53:17;;;;;;;2.17;1.17;;;;;;;;;;5064562;28;20032;-72
2022/12/26 12:55:59;;;;;;;1.55;0.88;;;;;;;;;;5065534;28;20491;-71
2022/12/26 12:58:54;;;;;;;1.98;0.57;;;;;;;;;;5063919;28;20074;-72
2022/12/26 13:01:26;;;;;;;0.88;0.45;;;;;;;;;;5065876;28;20483;-73
2022/12/26 13:04:14;;;;;;;1.88;0.45;;;;;;;;;;5065341;28;20047;-72
2022/12/26 13:07:06;;;;;;;1.52;0.68;;;;;;;;;;5062865;28;20393;-73
2022/12/26 13:09:41;;;;;;;2.03;0.70;;;;;;;;;;5018076;28;20371;-73
2022/12/26 13:12:12;;;;;;;2.10;0.77;;;;;;;;;;5069220;28;20032;-73
2022/12/26 13:14:56;;;;;;;2.40;0.80;;;;;;;;;;5068864;28;20097;-71
2022/12/26 13:17:30;;;;;;;0.55;0.50;;;;;;;;;;5043518;28;20377;-71
2022/12/26 13:20:15;;;;;;;2.65;0.63;;;;;;;;;;5062565;28;20056;-75
2022/12/26 13:25:36;;;;;;;2.22;0.70;;;;;;;;;;5068393;28;20069;-72
2022/12/26 13:28:08;;;;;;;1.63;0.55;;;;;;;;;;5071376;28;20028;-71
2022/12/26 13:30:37;;;;;;;4.23;0.80;;;;;;;;;;5047937;28;20077;-71
2022/12/26 13:33:04;;;;;;;1.73;0.60;;;;;;;;;;5064656;28;20423;-72
2022/12/26 13:35:56;;;;;;;1.48;0.70;;;;;;;;;;5060003;28;20158;-71
2022/12/26 13:38:25;;;;;;;2.20;0.77;;;;;;;;;;5042195;28;20029;-72
2022/12/26 13:44:18;;;;;;;2.15;0.70;;;;;;;;;;5064440;28;20447;-72
2022/12/26 13:46:47;;;;;;;1.88;1.10;;;;;;;;;;5006432;28;20036;-72
2022/12/26 13:49:25;;;;;;;3.58;1.40;;;;;;;;;;5067383;28;20035;-71
2022/12/26 13:51:52;;;;;;;3.20;1.17;;;;;;;;;;5066133;28;20028;-72
2022/12/26 13:54:20;;;;;;;3.83;1.10;;;;;;;;;;5060504;28;20044;-71
2022/12/26 13:57:03;;;;;;;4.45;0.98;;;;;;;;;;5064988;28;20060;-72
2022/12/26 13:59:33;;;;;;;3.53;0.70;;;;;;;;;;5048134;28;20032;-74
2022/12/26 14:02:24;;;;;;;2.15;1.02;;;;;;;;;;5044266;28;20047;-68
2022/12/26 14:05:20;;;;;;;1.52;0.85;;;;;;;;;;5068984;28;20040;-72
2022/12/26 14:08:17;;;;;;;3.63;1.30;;;;;;;;;;5033089;28;20059;-72
2022/12/26 14:11:20;;;;;;;3.17;1.00;;;;;;;;;;5041921;28;20062;-72
2022/12/26 14:14:07;;;;;;;1.98;0.82;;;;;;;;;;5064235;28;20035;-74
2022/12/26 14:16:47;;;;;;;1.52;0.85;;;;;;;;;;5060122;28;20031;-73
2022/12/26 14:19:37;;;;;;;1.13;0.55;;;;;;;;;;5063780;28;20028;-70
2022/12/26 14:22:26;;;;;;;2.67;1.05;;;;;;;;;;5065204;28;20037;-72
2022/12/26 14:25:07;;;;;;;1.88;0.70;;;;;;;;;;5065333;28;20028;-75
2022/12/26 14:27:43;;;;;;;3.25;0.85;;;;;;;;;;5068045;28;20027;-72
2022/12/26 14:30:26;;;;;;;2.38;0.90;;;;;;;;;;5067801;28;20488;-70
2022/12/26 14:33:23;;;;;;;3.10;0.77;;;;;;;;;;5067440;28;20067;-72
2022/12/26 14:36:03;;;;;;;1.52;0.47;;;;;;;;;;5024176;28;20071;-71
2022/12/26 14:38:52;;;;;;;2.30;0.38;;;;;;;;;;5068310;28;20032;-70
2022/12/26 14:44:16;;;;;;;1.23;0.60;;;;;;;;;;5065555;28;20035;-70
2022/12/26 14:46:41;;;;;;;1.77;0.35;;;;;;;;;;5067232;28;20040;-70
2022/12/26 14:49:30;;;;;;;1.20;0.65;;;;;;;;;;5067961;28;20028;-69
2022/12/26 14:52:24;;;;;;;1.05;0.60;;;;;;;;;;5058626;28;20048;-70
2022/12/26 14:54:52;;;;;;;1.33;0.40;;;;;;;;;;5058925;28;20146;-71
2022/12/26 14:57:40;;;;;;;3.28;0.50;;;;;;;;;;5065165;28;20513;-70
2022/12/26 15:00:32;;;;;;;3.75;0.70;;;;;;;;;;5066168;28;20090;-71
2022/12/26 15:02:57;;;;;;;2.50;0.57;;;;;;;;;;5065731;28;20031;-72
2022/12/26 15:05:33;;;;;;;1.83;0.43;;;;;;;;;;5065642;28;20061;-69
2022/12/26 15:08:24;;;;;;;1.08;0.40;;;;;;;;;;5068699;28;20040;-71
2022/12/26 15:10:52;;;;;;;2.28;0.45;;;;;;;;;;5067257;28;20084;-69
2022/12/26 15:13:39;;;;;;;0.65;0.20;;;;;;;;;;5065130;28;20042;-70
2022/12/26 15:16:46;;;;;;;1.10;0.30;;;;;;;;;;5068053;28;20537;-73
2022/12/26 15:19:36;;;;;;;4.25;0.40;;;;;;;;;;5067355;28;20037;-68
2022/12/26 15:22:08;;;;;;;1.60;0.35;;;;;;;;;;5066567;28;20025;-70
2022/12/26 15:25:03;;;;;;;1.65;0.20;;;;;;;;;;5048661;28;20031;-71
2022/12/26 15:27:51;;;;;;;1.42;0.30;;;;;;;;;;5062397;28;20442;-70
2022/12/26 15:30:53;;;;;;;2.38;0.40;;;;;;;;;;5063697;28;20047;-70
2022/12/26 15:33:25;;;;;;;0.50;0.30;;;;;;;;;;5037449;28;20048;-72
2022/12/26 15:36:32;;;;;;;3.28;0.50;;;;;;;;;;5061984;28;20025;-70
2022/12/26 15:39:29;;;;;;;1.20;0.40;;;;;;;;;;5049889;28;20071;-71
2022/12/26 15:42:03;;;;;;;1.02;0.45;;;;;;;;;;5070763;28;20021;-69
2022/12/26 15:45:23;;;;;;;1.17;0.50;;;;;;;;;;5067596;28;20115;-68
2022/12/26 15:48:03;;;;;;;2.03;0.65;;;;;;;;;;4982057;28;20029;-70
2022/12/26 15:51:05;;;;;;;1.35;0.50;;;;;;;;;;5068100;28;20032;-69
2022/12/26 15:53:45;;;;;;;2.67;0.47;;;;;;;;;;5065509;28;20052;-68
2022/12/26 15:56:43;;;;;;;2.67;0.55;;;;;;;;;;5064493;28;20466;-71
2022/12/26 15:59:23;;;;;;;2.78;0.68;;;;;;;;;;5012224;28;20143;-72
2022/12/26 16:01:52;;;;;;;1.77;0.50;;;;;;;;;;5065581;28;20024;-69
2022/12/26 16:04:26;;;;;;;2.15;0.65;;;;;;;;;;5071270;28;20028;-66
2022/12/26 16:07:13;;;;;;;2.33;0.60;;;;;;;;;;5063002;28;20028;-68
2022/12/26 16:09:45;;;;;;;2.00;0.60;;;;;;;;;;5068664;28;20028;-69
2022/12/26 16:12:38;;;;;;;2.58;0.70;;;;;;;;;;5050705;28;20064;-71
2022/12/26 16:15:10;;;;;;;1.75;0.40;;;;;;;;;;5067194;28;20462;-70
2022/12/26 16:17:36;;;;;;;2.05;0.50;;;;;;;;;;5069756;28;20097;-70
2022/12/26 16:23:22;;;;;;;2.28;0.43;;;;;;;;;;5037796;28;20458;-73
2022/12/26 16:25:49;;;;;;;1.65;0.40;;;;;;;;;;5068113;28;20055;-68
2022/12/26 16:28:18;;;;;;;1.90;0.60;;;;;;;;;;5067927;28;20445;-69
2022/12/26 16:30:43;;;;;;;1.60;0.40;;;;;;;;;;5067288;28;20036;-68
2022/12/26 16:33:12;;;;;;;3.42;0.70;;;;;;;;;;5068549;28;20677;-68
2022/12/26 16:35:40;;;;;;;2.17;0.60;;;;;;;;;;5050458;28;20404;-70
2022/12/26 16:38:11;;;;;;;0.80;0.50;;;;;;;;;;5069927;28;20090;-70
2022/12/26 16:40:46;;;;;;;1.52;0.60;;;;;;;;;;5051168;28;20071;-70
2022/12/26 16:43:17;;;;;;;2.30;0.63;;;;;;;;;;5068980;28;20032;-71
2022/12/26 16:45:46;;;;;;;2.53;0.63;;;;;;;;;;5069547;28;20052;-71
2022/12/26 16:48:15;;;;;;;2.85;1.50;;;;;;;;;;5066979;28;20032;-72
2022/12/26 16:50:50;;;;;;;1.60;0.60;;;;;;;;;;5066403;28;20021;-70
2022/12/26 16:53:18;;;;;;;2.17;0.70;;;;;;;;;;5062383;28;20025;-70
2022/12/26 16:55:46;;;;;;;4.85;0.80;;;;;;;;;;5062147;28;20469;-68
2022/12/26 16:58:17;;;;;;;1.08;0.50;;;;;;;;;;5063595;28;20040;-69
2022/12/26 17:00:57;;;;;;;0.90;0.55;;;;;;;;;;5066207;28;20029;-71
2022/12/26 17:03:33;;;;;;;1.90;0.55;;;;;;;;;;5057955;28;20067;-70
2022/12/26 17:05:59;;;;;;;2.50;0.70;;;;;;;;;;5059334;28;20787;-69
2022/12/26 17:08:26;;;;;;;3.30;0.60;;;;;;;;;;5058004;28;20032;-71
2022/12/26 17:10:51;;;;;;;2.67;0.47;;;;;;;;;;5067498;28;20024;-70
2022/12/26 17:13:23;;;;;;;1.70;0.60;;;;;;;;;;5065894;28;20043;-70
2022/12/26 17:16:03;;;;;;;3.38;0.57;;;;;;;;;;5066259;28;20062;-68
2022/12/26 17:18:41;;;;;;;1.55;0.50;;;;;;;;;;5066144;28;20056;-70
2022/12/26 17:21:16;;;;;;;1.75;0.50;;;;;;;;;;5047520;28;20496;-70
2022/12/26 17:23:42;;;;;;;2.00;0.60;;;;;;;;;;5045964;28;20036;-72
2022/12/26 17:26:17;;;;;;;2.20;0.52;;;;;;;;;;5068328;28;20039;-74
2022/12/26 17:28:43;;;;;;;1.48;0.30;;;;;;;;;;5065936;28;20456;-71
2022/12/26 17:31:17;;;;;;;1.20;0.50;;;;;;;;;;5062529;28;20075;-74
2022/12/26 17:33:43;;;;;;;2.28;0.63;;;;;;;;;;5052305;28;20032;-75
2022/12/26 17:36:13;;;;;;;2.20;0.60;;;;;;;;;;5050853;28;20028;-73